createdAt,value
2023-05-19T00:01:49.648Z,7.13
2023-05-19T00:04:16.595Z,7.97
2023-05-19T00:06:44.738Z,9.10
2023-05-19T00:09:12.047Z,7.40
2023-05-19T00:11:39.796Z,8.60
2023-05-19T00:14:08.473Z,7.40
2023-05-19T00:16:37.837Z,8.55
2023-05-19T00:19:06.422Z,9.68
2023-05-19T00:21:33.000Z,8.32
2023-05-19T00:23:59.448Z,10.23
2023-05-19T00:26:27.476Z,7.88
2023-05-19T00:28:59.669Z,9.40
2023-05-19T00:31:26.237Z,8.38
2023-05-19T00:33:52.801Z,10.85
2023-05-19T00:36:19.335Z,9.95
2023-05-19T00:38:45.826Z,10.57
2023-05-19T00:41:12.490Z,8.52
2023-05-19T00:43:38.932Z,10.65
2023-05-19T00:46:05.496Z,10.02
2023-05-19T00:48:32.261Z,11.32
2023-05-19T00:51:04.303Z,7.47
2023-05-19T00:53:33.544Z,9.98
2023-05-19T00:56:01.712Z,8.55
2023-05-19T00:58:30.282Z,10.02
2023-05-19T01:01:03.829Z,9.52
2023-05-19T01:03:35.610Z,9.77
2023-05-19T01:06:05.178Z,9.18
2023-05-19T01:08:37.153Z,8.65
2023-05-19T01:11:07.857Z,10.20
2023-05-19T01:13:36.077Z,11.60
2023-05-19T01:16:17.559Z,10.15
2023-05-19T01:19:01.889Z,10.40
2023-05-19T01:24:45.131Z,11.93
2023-05-19T01:27:37.060Z,17.30
2023-05-19T01:30:29.010Z,11.45
2023-05-19T01:33:00.772Z,8.55
2023-05-19T01:35:28.580Z,12.27
2023-05-19T01:37:58.662Z,10.00
2023-05-19T01:40:26.759Z,13.20
2023-05-19T01:42:57.514Z,11.63
2023-05-19T01:45:26.581Z,9.02
2023-05-19T01:47:59.470Z,6.85
2023-05-19T01:50:26.603Z,9.80
2023-05-19T01:52:53.675Z,12.30
2023-05-19T01:55:22.828Z,8.68
2023-05-19T01:58:00.612Z,10.48
2023-05-19T02:00:51.480Z,11.93
2023-05-19T02:03:36.351Z,11.88
2023-05-19T02:06:42.496Z,10.25
2023-05-19T02:09:18.523Z,7.57
2023-05-19T02:12:06.055Z,9.88
2023-05-19T02:14:59.053Z,10.43
2023-05-19T02:17:29.121Z,10.40
2023-05-19T02:19:55.855Z,10.43
2023-05-19T02:22:22.704Z,8.07
2023-05-19T02:24:51.577Z,12.98
2023-05-19T02:27:18.584Z,9.90
2023-05-19T02:29:45.108Z,8.80
2023-05-19T02:32:11.729Z,11.48
2023-05-19T02:34:39.796Z,10.43
2023-05-19T02:37:07.757Z,12.25
2023-05-19T02:39:35.250Z,8.00
2023-05-19T02:42:01.829Z,10.77
2023-05-19T02:44:28.342Z,10.63
2023-05-19T02:46:54.934Z,11.02
2023-05-19T02:49:21.947Z,11.02
2023-05-19T02:51:48.404Z,10.60
2023-05-19T02:54:14.979Z,10.68
2023-05-19T02:56:41.514Z,8.93
2023-05-19T02:59:07.997Z,11.52
2023-05-19T03:01:34.611Z,11.02
2023-05-19T03:04:01.243Z,8.13
2023-05-19T03:06:28.193Z,11.90
2023-05-19T03:08:54.765Z,10.45
2023-05-19T03:11:23.118Z,9.98
2023-05-19T03:13:49.638Z,10.82
2023-05-19T03:16:16.225Z,13.55
2023-05-19T03:18:43.208Z,10.38
2023-05-19T03:21:09.714Z,11.68
2023-05-19T03:23:36.264Z,11.02
2023-05-19T03:26:04.194Z,9.63
2023-05-19T03:28:30.824Z,11.18
2023-05-19T03:30:57.309Z,10.13
2023-05-19T03:33:29.793Z,7.78
2023-05-19T03:35:57.427Z,11.40
2023-05-19T03:38:23.892Z,8.60
2023-05-19T03:40:56.054Z,12.90
2023-05-19T03:43:22.558Z,12.70
2023-05-19T03:45:54.946Z,11.32
2023-05-19T03:48:44.986Z,9.82
2023-05-19T03:51:30.211Z,8.77
2023-05-19T03:54:05.988Z,11.60
2023-05-19T03:56:32.866Z,9.57
2023-05-19T03:58:59.498Z,8.55
2023-05-19T04:01:26.030Z,10.82
2023-05-19T04:03:52.560Z,10.80
2023-05-19T04:06:19.129Z,9.27
2023-05-19T04:08:45.832Z,8.98
2023-05-19T04:11:12.760Z,9.55
2023-05-19T04:13:39.213Z,12.02
2023-05-19T04:16:06.474Z,13.70
2023-05-19T04:18:33.283Z,12.07
2023-05-19T04:20:59.798Z,11.13
2023-05-19T04:23:26.391Z,9.98
2023-05-19T04:25:54.231Z,10.52
2023-05-19T04:28:21.559Z,10.38
2023-05-19T04:30:48.095Z,11.30
2023-05-19T04:33:14.574Z,8.98
2023-05-19T04:35:43.748Z,11.68
2023-05-19T04:38:12.057Z,13.27
2023-05-19T04:40:40.468Z,13.50
2023-05-19T04:43:09.396Z,12.05
2023-05-19T04:45:37.602Z,12.13
2023-05-19T04:48:05.120Z,10.65
2023-05-19T04:50:32.377Z,11.52
2023-05-19T04:52:59.751Z,11.40
2023-05-19T04:55:27.091Z,14.15
2023-05-19T04:57:53.628Z,11.25
2023-05-19T05:00:21.320Z,13.95
2023-05-19T05:02:57.633Z,16.15
2023-05-19T05:05:25.874Z,14.20
2023-05-19T05:07:54.023Z,13.43
2023-05-19T05:10:22.647Z,11.80
2023-05-19T05:12:49.750Z,13.10
2023-05-19T05:15:16.633Z,11.15
2023-05-19T05:17:45.091Z,15.80
2023-05-19T05:20:12.700Z,14.73
2023-05-19T05:22:39.537Z,8.52
2023-05-19T05:25:08.036Z,8.75
2023-05-19T05:27:35.221Z,9.07
2023-05-19T05:30:05.330Z,12.43
2023-05-19T05:32:32.098Z,11.65
2023-05-19T05:35:00.479Z,11.85
2023-05-19T05:37:27.004Z,11.50
2023-05-19T05:39:53.515Z,11.38
2023-05-19T05:42:20.276Z,11.00
2023-05-19T05:44:48.031Z,13.38
2023-05-19T05:47:15.333Z,11.30
2023-05-19T05:49:42.133Z,8.15
2023-05-19T05:52:12.130Z,10.52
2023-05-19T05:54:44.301Z,13.15
2023-05-19T05:57:13.029Z,14.90
2023-05-19T05:59:40.935Z,9.00
2023-05-19T06:02:08.466Z,10.38
2023-05-19T06:04:35.616Z,10.65
2023-05-19T06:07:04.219Z,9.43
2023-05-19T06:09:34.588Z,13.55
2023-05-19T06:12:02.605Z,11.27
2023-05-19T06:14:34.181Z,11.90
2023-05-19T06:17:36.252Z,10.65
2023-05-19T06:20:05.060Z,11.55
2023-05-19T06:22:31.747Z,7.88
2023-05-19T06:24:58.385Z,12.38
2023-05-19T06:27:24.947Z,10.27
2023-05-19T06:29:51.416Z,13.73
2023-05-19T06:32:18.016Z,9.10
2023-05-19T06:34:45.589Z,12.30
2023-05-19T06:37:14.771Z,9.93
2023-05-19T06:39:41.262Z,8.40
2023-05-19T06:42:08.348Z,8.77
2023-05-19T06:45:07.581Z,8.40
2023-05-19T06:47:34.374Z,8.77
2023-05-19T06:50:00.971Z,9.57
2023-05-19T06:52:32.388Z,8.73
2023-05-19T06:55:00.632Z,11.80
2023-05-19T06:57:27.291Z,8.07
2023-05-19T06:59:53.917Z,10.45
2023-05-19T07:02:20.564Z,7.82
2023-05-19T07:04:47.657Z,7.00
2023-05-19T07:07:16.241Z,7.15
2023-05-19T07:09:43.486Z,4.65
2023-05-19T07:12:10.007Z,6.97
2023-05-19T07:14:38.837Z,6.30
2023-05-19T07:17:05.624Z,3.28
2023-05-19T07:19:33.307Z,6.30
2023-05-19T07:21:59.811Z,5.30
2023-05-19T07:24:27.516Z,9.07
2023-05-19T07:26:54.166Z,5.00
2023-05-19T07:29:20.670Z,5.90
2023-05-19T07:31:47.187Z,4.78
2023-05-19T07:34:13.840Z,6.05
2023-05-19T07:36:40.389Z,5.03
2023-05-19T07:39:06.892Z,5.80
2023-05-19T07:41:34.465Z,4.93
2023-05-19T07:44:07.534Z,5.57
2023-05-19T07:46:35.600Z,6.28
2023-05-19T07:49:02.273Z,5.22
2023-05-19T07:51:28.776Z,5.30
2023-05-19T07:53:55.292Z,10.02
2023-05-19T07:56:21.819Z,6.40
2023-05-19T07:58:48.411Z,6.57
2023-05-19T08:01:15.129Z,6.47
2023-05-19T08:03:41.972Z,6.13
2023-05-19T08:06:08.623Z,5.40
2023-05-19T08:08:35.367Z,8.13
2023-05-19T08:11:04.009Z,6.15
2023-05-19T08:13:31.067Z,6.07
2023-05-19T08:15:59.859Z,6.38
2023-05-19T08:18:26.920Z,6.38
2023-05-19T08:20:53.429Z,9.30
2023-05-19T08:23:19.941Z,11.73
2023-05-19T08:25:46.453Z,10.10
2023-05-19T08:28:13.260Z,6.95
2023-05-19T08:30:39.738Z,10.80
2023-05-19T08:33:06.422Z,9.75
2023-05-19T08:35:32.999Z,9.45
2023-05-19T08:37:59.977Z,8.02
2023-05-19T08:40:29.033Z,9.95
2023-05-19T08:42:55.528Z,10.85
2023-05-19T08:45:22.006Z,7.57
2023-05-19T08:47:50.983Z,5.00
2023-05-19T08:50:24.856Z,5.60
2023-05-19T08:53:01.540Z,8.07
2023-05-19T08:55:36.641Z,6.07
2023-05-19T08:58:04.283Z,11.77
2023-05-19T09:00:30.987Z,8.15
2023-05-19T09:03:06.547Z,8.13
2023-05-19T09:05:45.637Z,7.90
2023-05-19T09:08:12.634Z,7.30
2023-05-19T09:10:39.180Z,7.82
2023-05-19T09:13:06.441Z,8.32
2023-05-19T09:15:36.687Z,6.32
2023-05-19T09:18:08.520Z,8.00
2023-05-19T09:20:45.041Z,9.85
2023-05-19T09:23:16.816Z,9.18
2023-05-19T09:25:51.134Z,9.18
2023-05-19T09:28:29.376Z,6.70
2023-05-19T09:31:02.472Z,6.63
2023-05-19T09:33:29.716Z,7.47
2023-05-19T09:35:56.829Z,8.50
2023-05-19T09:38:27.393Z,7.97
2023-05-19T09:40:57.898Z,10.27
2023-05-19T09:43:27.260Z,8.88
2023-05-19T09:46:03.911Z,11.00
2023-05-19T09:48:30.502Z,7.75
2023-05-19T09:50:57.960Z,8.10
2023-05-19T09:53:25.430Z,9.10
2023-05-19T09:55:58.876Z,9.18
2023-05-19T09:58:26.883Z,5.45
2023-05-19T10:00:54.713Z,7.15
2023-05-19T10:03:23.864Z,8.73
2023-05-19T10:05:51.168Z,10.30
2023-05-19T10:08:17.954Z,12.43
2023-05-19T10:10:47.922Z,9.80
2023-05-19T10:13:16.368Z,7.38
2023-05-19T10:15:57.109Z,9.52
2023-05-19T10:18:26.842Z,8.88
2023-05-19T10:20:54.261Z,7.60
2023-05-19T10:23:21.048Z,6.80
2023-05-19T10:25:49.252Z,5.88
2023-05-19T10:28:18.395Z,5.95
2023-05-19T10:30:49.349Z,10.30
2023-05-19T10:33:18.819Z,8.80
2023-05-19T10:36:12.711Z,8.68
2023-05-19T10:39:05.849Z,9.57
2023-05-19T10:41:35.112Z,6.00
2023-05-19T10:44:21.176Z,10.13
2023-05-19T10:46:47.778Z,7.72
2023-05-19T10:49:23.858Z,7.20
2023-05-19T10:51:52.312Z,7.25
2023-05-19T10:54:40.700Z,5.80
2023-05-19T10:57:08.327Z,4.40
2023-05-19T10:59:39.818Z,5.68
2023-05-19T11:02:08.132Z,5.97
2023-05-19T11:04:51.798Z,7.10
2023-05-19T11:07:20.439Z,4.75
2023-05-19T11:09:51.795Z,5.82
2023-05-19T11:12:24.654Z,5.75
2023-05-19T11:14:55.384Z,4.60
2023-05-19T11:17:23.647Z,6.03
2023-05-19T11:19:55.061Z,7.28
2023-05-19T11:22:28.937Z,5.88
2023-05-19T11:24:55.874Z,10.93
2023-05-19T11:27:33.380Z,6.40
2023-05-19T11:30:15.113Z,7.78
2023-05-19T11:32:42.840Z,4.82
2023-05-19T11:35:10.275Z,6.47
2023-05-19T11:37:37.362Z,4.85
2023-05-19T11:40:08.937Z,5.80
2023-05-19T11:42:36.898Z,6.28
2023-05-19T11:45:04.939Z,5.82
2023-05-19T11:47:46.001Z,7.13
2023-05-19T11:50:19.072Z,6.57
2023-05-19T11:52:46.269Z,7.68
2023-05-19T11:55:22.067Z,9.10
2023-05-19T11:58:04.547Z,7.50
2023-05-19T12:00:39.224Z,6.40
2023-05-19T12:03:07.267Z,5.97
2023-05-19T12:05:40.945Z,6.72
2023-05-19T12:08:08.991Z,5.75
2023-05-19T12:10:35.838Z,6.50
2023-05-19T12:13:03.386Z,4.35
2023-05-19T12:15:31.561Z,5.47
2023-05-19T12:18:01.881Z,5.72
2023-05-19T12:20:32.387Z,7.85
2023-05-19T12:23:00.418Z,5.00
2023-05-19T12:25:29.036Z,5.03
2023-05-19T12:28:00.429Z,6.88
2023-05-19T12:30:28.754Z,5.30
2023-05-19T12:32:57.776Z,7.35
2023-05-19T12:35:28.964Z,5.72
2023-05-19T12:37:55.570Z,8.55
2023-05-19T12:40:22.595Z,4.13
2023-05-19T12:42:51.949Z,6.38
2023-05-19T12:45:20.570Z,6.65
2023-05-19T12:47:49.288Z,5.03
2023-05-19T12:50:16.125Z,6.45
2023-05-19T12:52:47.991Z,5.97
2023-05-19T12:55:16.436Z,7.00
2023-05-19T12:57:45.160Z,4.32
2023-05-19T13:00:17.535Z,8.00
2023-05-19T13:03:04.975Z,6.32
2023-05-19T13:05:33.944Z,5.80
2023-05-19T13:08:09.048Z,5.03
2023-05-19T13:10:37.851Z,4.75
2023-05-19T13:13:05.245Z,4.82
2023-05-19T13:15:37.659Z,6.82
2023-05-19T13:18:07.171Z,4.82
2023-05-19T13:20:34.264Z,6.47
2023-05-19T13:23:01.353Z,7.43
2023-05-19T13:25:27.869Z,7.55
2023-05-19T13:27:55.244Z,9.15
2023-05-19T13:30:21.980Z,4.63
2023-05-19T13:32:48.484Z,5.38
2023-05-19T13:35:15.481Z,7.22
2023-05-19T13:37:42.545Z,7.53
2023-05-19T13:40:09.973Z,4.80
2023-05-19T13:42:36.692Z,3.80
2023-05-19T13:45:03.668Z,6.03
2023-05-19T13:47:30.254Z,5.10
2023-05-19T13:49:57.554Z,7.47
2023-05-19T13:52:24.421Z,6.22
2023-05-19T13:54:50.912Z,6.88
2023-05-19T13:57:17.379Z,5.82
2023-05-19T14:00:00.260Z,6.20
2023-05-19T14:02:28.057Z,4.03
2023-05-19T14:04:55.860Z,5.20
2023-05-19T14:07:22.327Z,3.05
2023-05-19T14:09:50.965Z,6.72
2023-05-19T14:12:17.560Z,6.45
2023-05-19T14:14:44.049Z,9.82
2023-05-19T14:17:10.744Z,6.55
2023-05-19T14:19:37.959Z,6.50
2023-05-19T14:22:04.751Z,6.60
2023-05-19T14:24:31.328Z,6.82
2023-05-19T14:26:57.832Z,9.32
2023-05-19T14:29:24.300Z,7.30
2023-05-19T14:31:50.817Z,5.95
2023-05-19T14:34:20.782Z,5.63
2023-05-19T14:36:47.868Z,4.72
2023-05-19T14:39:14.421Z,6.30
2023-05-19T14:41:40.955Z,7.97
2023-05-19T14:44:07.421Z,7.07
2023-05-19T14:46:33.977Z,6.30
2023-05-19T14:49:00.625Z,8.02
2023-05-19T14:51:27.106Z,5.68
2023-05-19T14:53:53.900Z,5.72
2023-05-19T14:56:21.856Z,6.45
2023-05-19T14:58:48.344Z,7.05
2023-05-19T15:01:14.850Z,7.10
2023-05-19T15:03:41.306Z,7.63
2023-05-19T15:06:11.606Z,7.57
2023-05-19T15:08:39.182Z,4.88
2023-05-19T15:11:05.880Z,5.53
2023-05-19T15:13:32.371Z,8.20
2023-05-19T15:16:12.546Z,9.32
2023-05-19T15:18:43.288Z,8.68
2023-05-19T15:21:09.867Z,6.78
2023-05-19T15:23:36.389Z,7.15
2023-05-19T15:26:02.936Z,5.65
2023-05-19T15:28:29.497Z,5.93
2023-05-19T15:30:56.032Z,8.38
2023-05-19T15:33:22.564Z,7.85
2023-05-19T15:35:51.713Z,9.52
2023-05-19T15:38:21.252Z,6.88
2023-05-19T15:40:47.824Z,9.00
2023-05-19T15:43:14.351Z,7.68
2023-05-19T15:45:41.000Z,8.35
2023-05-19T15:48:07.781Z,9.30
2023-05-19T15:50:34.560Z,9.18
2023-05-19T15:53:01.366Z,9.65
2023-05-19T15:55:27.982Z,9.18
2023-05-19T15:57:54.513Z,7.43
2023-05-19T16:00:21.457Z,9.57
2023-05-19T16:02:48.066Z,6.43
2023-05-19T16:05:14.699Z,7.32
2023-05-19T16:07:42.112Z,7.88
2023-05-19T16:10:09.319Z,9.95
2023-05-19T16:12:36.675Z,7.30
2023-05-19T16:15:03.477Z,9.07
2023-05-19T16:17:30.103Z,9.18
2023-05-19T16:19:56.726Z,7.45
2023-05-19T16:22:24.770Z,7.70
2023-05-19T16:24:52.189Z,8.43
2023-05-19T16:27:18.975Z,10.60
2023-05-19T16:29:45.561Z,7.82
2023-05-19T16:32:12.376Z,11.77
2023-05-19T16:34:38.974Z,7.70
2023-05-19T16:37:05.445Z,6.80
2023-05-19T16:39:32.459Z,7.57
2023-05-19T16:41:58.899Z,7.80
2023-05-19T16:44:25.627Z,7.57
2023-05-19T16:46:52.171Z,6.75
2023-05-19T16:49:18.660Z,5.40
2023-05-19T16:51:46.735Z,6.65
2023-05-19T16:54:13.955Z,10.10
2023-05-19T16:56:40.500Z,7.85
2023-05-19T16:59:08.909Z,8.32
2023-05-19T17:01:35.502Z,8.23
2023-05-19T17:04:02.064Z,8.32
2023-05-19T17:06:28.675Z,6.55
2023-05-19T17:08:55.121Z,6.25
2023-05-19T17:11:21.777Z,5.57
2023-05-19T17:13:48.280Z,8.07
2023-05-19T17:16:15.001Z,7.22
2023-05-19T17:18:41.717Z,8.63
2023-05-19T17:21:08.238Z,6.60
2023-05-19T17:23:34.790Z,9.70
2023-05-19T17:26:01.760Z,5.50
2023-05-19T17:28:28.346Z,6.93
2023-05-19T17:30:54.867Z,4.97
2023-05-19T17:33:21.435Z,5.90
2023-05-19T17:35:47.945Z,6.50
2023-05-19T17:38:14.452Z,6.60
2023-05-19T17:40:42.158Z,7.25
2023-05-19T17:43:08.810Z,6.65
2023-05-19T17:45:35.572Z,9.73
2023-05-19T17:48:02.329Z,8.65
2023-05-19T17:50:28.871Z,5.22
2023-05-19T17:52:56.117Z,10.27
2023-05-19T17:55:24.742Z,7.68
2023-05-19T17:57:51.363Z,5.13
2023-05-19T18:00:18.605Z,6.57
2023-05-19T18:02:45.497Z,6.15
2023-05-19T18:05:12.706Z,9.98
2023-05-19T18:07:40.125Z,10.68
2023-05-19T18:10:08.096Z,7.50
2023-05-19T18:12:34.649Z,6.78
2023-05-19T18:15:01.176Z,9.25
2023-05-19T18:17:27.697Z,9.88
2023-05-19T18:19:54.529Z,7.03
2023-05-19T18:22:22.166Z,9.40
2023-05-19T18:24:48.820Z,8.90
2023-05-19T18:27:15.271Z,6.38
2023-05-19T18:29:42.414Z,6.28
2023-05-19T18:32:09.273Z,7.75
2023-05-19T18:34:35.830Z,9.95
2023-05-19T18:37:02.346Z,4.72
2023-05-19T18:39:29.422Z,7.50
2023-05-19T18:41:56.059Z,6.03
2023-05-19T18:44:22.653Z,6.22
2023-05-19T18:46:49.144Z,6.95
2023-05-19T18:49:15.750Z,8.32
2023-05-19T18:51:42.482Z,7.20
2023-05-19T18:54:09.107Z,7.03
2023-05-19T18:56:35.682Z,9.05
2023-05-19T18:59:02.201Z,4.50
2023-05-19T19:01:29.000Z,10.23
2023-05-19T19:03:55.750Z,6.15
2023-05-19T19:06:23.306Z,8.13
2023-05-19T19:08:50.271Z,9.25
2023-05-19T19:11:16.920Z,7.40
2023-05-19T19:13:43.852Z,8.10
2023-05-19T19:16:11.418Z,7.18
2023-05-19T19:18:38.141Z,7.57
2023-05-19T19:21:05.862Z,7.60
2023-05-19T19:23:32.647Z,6.78
2023-05-19T19:25:59.193Z,7.63
2023-05-19T19:28:25.870Z,8.10
2023-05-19T19:30:52.334Z,5.07
2023-05-19T19:33:18.915Z,5.38
2023-05-19T19:35:46.872Z,7.15
2023-05-19T19:38:13.791Z,8.35
2023-05-19T19:40:40.440Z,4.97
2023-05-19T19:43:07.323Z,8.07
2023-05-19T19:45:34.834Z,7.53
2023-05-19T19:48:01.673Z,6.75
2023-05-19T19:50:28.384Z,5.13
2023-05-19T19:52:54.873Z,8.40
2023-05-19T19:55:21.619Z,4.65
2023-05-19T19:57:49.321Z,5.75
2023-05-19T20:00:16.576Z,7.95
2023-05-19T20:02:55.715Z,10.02
2023-05-19T20:05:29.834Z,3.95
2023-05-19T20:07:56.357Z,6.03
2023-05-19T20:10:22.848Z,5.30
2023-05-19T20:12:50.554Z,7.30
2023-05-19T20:15:17.278Z,5.53
2023-05-19T20:17:43.851Z,3.67
2023-05-19T20:20:12.149Z,7.05
2023-05-19T20:22:39.118Z,5.88
2023-05-19T20:25:06.177Z,6.38
2023-05-19T20:27:32.665Z,6.53
2023-05-19T20:29:59.207Z,8.40
2023-05-19T20:32:25.802Z,4.20
2023-05-19T20:34:52.377Z,6.22
2023-05-19T20:37:18.852Z,5.93
2023-05-19T20:39:45.364Z,5.70
2023-05-19T20:42:12.232Z,7.57
2023-05-19T20:44:38.834Z,5.60
2023-05-19T20:47:07.945Z,3.72
2023-05-19T20:49:35.024Z,5.72
2023-05-19T20:52:01.603Z,3.80
2023-05-19T20:54:28.212Z,3.13
2023-05-19T20:56:54.661Z,4.90
2023-05-19T20:59:21.350Z,4.82
2023-05-19T21:01:48.310Z,2.53
2023-05-19T21:04:14.906Z,4.95
2023-05-19T21:06:41.885Z,4.00
2023-05-19T21:09:08.707Z,7.15
2023-05-19T21:11:35.428Z,3.78
2023-05-19T21:14:03.978Z,5.75
2023-05-19T21:16:31.271Z,6.50
2023-05-19T21:18:58.266Z,5.97
2023-05-19T21:21:26.059Z,3.35
2023-05-19T21:23:52.576Z,3.13
2023-05-19T21:26:19.031Z,4.22
2023-05-19T21:28:45.573Z,3.95
2023-05-19T21:31:12.278Z,5.78
2023-05-19T21:33:38.913Z,4.07
2023-05-19T21:36:05.863Z,3.80
2023-05-19T21:38:32.356Z,5.90
2023-05-19T21:40:58.830Z,4.10
2023-05-19T21:43:25.312Z,4.85
2023-05-19T21:45:51.749Z,2.85
2023-05-19T21:48:18.397Z,3.40
2023-05-19T21:50:45.040Z,4.95
2023-05-19T21:53:11.508Z,3.08
2023-05-19T21:55:39.156Z,3.30
2023-05-19T21:58:05.751Z,4.20
2023-05-19T22:00:32.414Z,3.30
2023-05-19T22:02:59.078Z,5.65
2023-05-19T22:05:25.719Z,4.43
2023-05-19T22:07:52.221Z,4.40
2023-05-19T22:10:18.738Z,3.88
2023-05-19T22:12:45.213Z,2.05
2023-05-19T22:15:13.259Z,2.55
2023-05-19T22:17:39.795Z,3.92
2023-05-19T22:20:06.911Z,7.50
2023-05-19T22:22:34.056Z,3.10
2023-05-19T22:25:00.621Z,4.82
2023-05-19T22:27:27.080Z,4.22
2023-05-19T22:29:53.541Z,4.38
2023-05-19T22:32:20.083Z,4.43
2023-05-19T22:34:46.683Z,3.35
2023-05-19T22:37:13.283Z,3.13
2023-05-19T22:39:39.748Z,3.08
2023-05-19T22:42:06.250Z,5.05
2023-05-19T22:44:32.777Z,2.38
2023-05-19T22:46:59.259Z,3.63
2023-05-19T22:49:27.337Z,6.18
2023-05-19T22:51:53.840Z,4.15
2023-05-19T22:54:20.379Z,4.32
2023-05-19T22:56:49.042Z,3.78
2023-05-19T22:59:17.914Z,2.97
2023-05-19T23:01:46.526Z,4.30
2023-05-19T23:04:13.503Z,4.20
2023-05-19T23:06:40.003Z,2.60
2023-05-19T23:09:06.540Z,2.67
2023-05-19T23:11:33.129Z,4.25
2023-05-19T23:13:59.692Z,4.07
2023-05-19T23:16:26.222Z,3.45
2023-05-19T23:18:52.756Z,3.33
2023-05-19T23:21:19.334Z,5.47
2023-05-19T23:23:45.861Z,3.15
2023-05-19T23:26:13.411Z,7.43
2023-05-19T23:28:41.813Z,2.30
2023-05-19T23:31:08.727Z,3.35
2023-05-19T23:33:35.262Z,3.75
2023-05-19T23:36:07.646Z,4.32
2023-05-19T23:38:34.778Z,3.90
2023-05-19T23:41:02.230Z,4.13
2023-05-19T23:43:28.914Z,4.28
2023-05-19T23:45:55.452Z,2.47
2023-05-19T23:48:21.925Z,5.82
2023-05-19T23:50:48.445Z,1.92
2023-05-19T23:53:14.924Z,3.17
2023-05-19T23:55:42.095Z,3.67
2023-05-19T23:58:08.600Z,4.68
